sensor_id;sensor_type;location;lat;lon;timestamp;P1;durP1;ratioP1;P2;durP2;ratioP2
75112;SDS011;63692;47.338;8.520;2023-09-12T06:01:38;14.80;;;9.20;;
75112;SDS011;63692;47.338;8.520;2023-09-12T06:04:05;21.85;;;9.20;;
75112;SDS011;63692;47.338;8.520;2023-09-12T06:24:08;15.40;;;9.50;;
75112;SDS011;63692;47.338;8.520;2023-09-12T06:36:49;15.80;;;9.48;;
75112;SDS011;63692;47.338;8.520;2023-09-12T06:39:15;18.90;;;9.63;;
75112;SDS011;63692;47.338;8.520;2023-09-12T06:41:40;15.95;;;10.15;;
75112;SDS011;63692;47.338;8.520;2023-09-12T06:44:06;16.67;;;10.70;;
75112;SDS011;63692;47.338;8.520;2023-09-12T06:46:32;17.02;;;9.80;;
75112;SDS011;63692;47.338;8.520;2023-09-12T06:49:01;15.07;;;9.50;;
75112;SDS011;63692;47.338;8.520;2023-09-12T06:51:27;19.00;;;10.02;;
75112;SDS011;63692;47.338;8.520;2023-09-12T06:53:53;15.25;;;9.88;;
75112;SDS011;63692;47.338;8.520;2023-09-12T06:56:18;15.25;;;9.35;;
75112;SDS011;63692;47.338;8.520;2023-09-12T06:58:44;14.00;;;9.80;;
75112;SDS011;63692;47.338;8.520;2023-09-12T07:01:09;17.05;;;9.23;;
75112;SDS011;63692;47.338;8.520;2023-09-12T07:03:35;14.13;;;9.63;;
75112;SDS011;63692;47.338;8.520;2023-09-12T07:06:01;20.05;;;9.23;;
75112;SDS011;63692;47.338;8.520;2023-09-12T07:08:30;14.70;;;8.90;;
75112;SDS011;63692;47.338;8.520;2023-09-12T07:10:56;14.38;;;8.85;;
75112;SDS011;63692;47.338;8.520;2023-09-12T07:13:23;11.82;;;9.15;;
75112;SDS011;63692;47.338;8.520;2023-09-12T07:15:49;13.25;;;9.05;;
75112;SDS011;63692;47.338;8.520;2023-09-12T07:18:15;15.23;;;9.52;;
75112;SDS011;63692;47.338;8.520;2023-09-12T07:20:41;14.60;;;9.25;;
75112;SDS011;63692;47.338;8.520;2023-09-12T07:23:07;11.57;;;8.88;;
75112;SDS011;63692;47.338;8.520;2023-09-12T07:25:39;13.57;;;9.57;;
75112;SDS011;63692;47.338;8.520;2023-09-12T07:28:06;14.57;;;9.80;;
75112;SDS011;63692;47.338;8.520;2023-09-12T07:30:32;13.85;;;9.95;;
75112;SDS011;63692;47.338;8.520;2023-09-12T07:32:58;17.85;;;9.95;;
75112;SDS011;63692;47.338;8.520;2023-09-12T07:35:24;12.85;;;9.57;;
75112;SDS011;63692;47.338;8.520;2023-09-12T07:37:49;11.15;;;9.57;;
75112;SDS011;63692;47.338;8.520;2023-09-12T07:40:15;18.30;;;9.98;;
75112;SDS011;63692;47.338;8.520;2023-09-12T07:42:41;16.50;;;10.48;;
75112;SDS011;63692;47.338;8.520;2023-09-12T07:45:07;14.40;;;9.95;;
75112;SDS011;63692;47.338;8.520;2023-09-12T07:47:33;17.08;;;9.85;;
75112;SDS011;63692;47.338;8.520;2023-09-12T07:49:59;12.70;;;9.35;;
75112;SDS011;63692;47.338;8.520;2023-09-12T07:52:25;15.73;;;8.48;;
75112;SDS011;63692;47.338;8.520;2023-09-12T07:54:51;14.48;;;8.63;;
75112;SDS011;63692;47.338;8.520;2023-09-12T07:57:22;14.13;;;9.27;;
75112;SDS011;63692;47.338;8.520;2023-09-12T07:59:48;14.02;;;8.77;;
75112;SDS011;63692;47.338;8.520;2023-09-12T08:02:13;13.63;;;9.50;;
75112;SDS011;63692;47.338;8.520;2023-09-12T08:04:39;13.40;;;9.63;;
75112;SDS011;63692;47.338;8.520;2023-09-12T08:07:05;19.33;;;10.15;;
75112;SDS011;63692;47.338;8.520;2023-09-12T08:09:50;15.02;;;9.52;;
75112;SDS011;63692;47.338;8.520;2023-09-12T08:12:23;13.57;;;10.38;;
75112;SDS011;63692;47.338;8.520;2023-09-12T08:14:53;14.73;;;9.02;;
75112;SDS011;63692;47.338;8.520;2023-09-12T08:17:20;12.38;;;9.18;;
75112;SDS011;63692;47.338;8.520;2023-09-12T08:19:46;18.08;;;10.75;;
75112;SDS011;63692;47.338;8.520;2023-09-12T08:22:11;13.20;;;10.25;;
75112;SDS011;63692;47.338;8.520;2023-09-12T08:24:37;17.02;;;10.00;;
75112;SDS011;63692;47.338;8.520;2023-09-12T08:27:06;12.63;;;8.70;;
75112;SDS011;63692;47.338;8.520;2023-09-12T08:29:34;12.15;;;9.68;;
75112;SDS011;63692;47.338;8.520;2023-09-12T08:32:00;15.50;;;8.77;;
75112;SDS011;63692;47.338;8.520;2023-09-12T08:34:26;11.45;;;9.45;;
75112;SDS011;63692;47.338;8.520;2023-09-12T08:36:52;14.88;;;9.90;;
75112;SDS011;63692;47.338;8.520;2023-09-12T08:39:22;15.85;;;9.68;;
75112;SDS011;63692;47.338;8.520;2023-09-12T08:41:49;11.90;;;9.82;;
75112;SDS011;63692;47.338;8.520;2023-09-12T08:44:16;13.23;;;8.73;;
75112;SDS011;63692;47.338;8.520;2023-09-12T08:46:42;12.65;;;8.48;;
75112;SDS011;63692;47.338;8.520;2023-09-12T08:49:09;13.05;;;8.65;;
75112;SDS011;63692;47.338;8.520;2023-09-12T08:51:36;11.77;;;9.40;;
75112;SDS011;63692;47.338;8.520;2023-09-12T08:54:02;14.65;;;9.15;;
75112;SDS011;63692;47.338;8.520;2023-09-12T08:56:29;11.63;;;8.52;;
75112;SDS011;63692;47.338;8.520;2023-09-12T08:58:57;11.07;;;8.63;;
75112;SDS011;63692;47.338;8.520;2023-09-12T09:01:24;14.25;;;9.00;;
75112;SDS011;63692;47.338;8.520;2023-09-12T09:03:52;12.63;;;8.25;;
75112;SDS011;63692;47.338;8.520;2023-09-12T09:06:19;13.38;;;8.98;;
75112;SDS011;63692;47.338;8.520;2023-09-12T09:08:46;10.82;;;8.45;;
75112;SDS011;63692;47.338;8.520;2023-09-12T09:11:13;14.02;;;8.75;;
75112;SDS011;63692;47.338;8.520;2023-09-12T09:13:39;12.02;;;8.75;;
75112;SDS011;63692;47.338;8.520;2023-09-12T09:16:14;14.23;;;8.52;;
75112;SDS011;63692;47.338;8.520;2023-09-12T09:19:01;13.50;;;8.98;;
75112;SDS011;63692;47.338;8.520;2023-09-12T09:21:32;12.05;;;8.43;;
75112;SDS011;63692;47.338;8.520;2023-09-12T09:23:59;12.90;;;8.15;;
75112;SDS011;63692;47.338;8.520;2023-09-12T09:26:41;11.93;;;8.50;;
75112;SDS011;63692;47.338;8.520;2023-09-12T09:29:13;13.32;;;8.63;;
75112;SDS011;63692;47.338;8.520;2023-09-12T09:31:42;15.35;;;8.65;;
75112;SDS011;63692;47.338;8.520;2023-09-12T09:34:12;11.80;;;9.10;;
75112;SDS011;63692;47.338;8.520;2023-09-12T09:36:46;9.90;;;8.30;;
75112;SDS011;63692;47.338;8.520;2023-09-12T09:39:13;11.32;;;8.13;;
75112;SDS011;63692;47.338;8.520;2023-09-12T09:41:40;11.18;;;8.40;;
75112;SDS011;63692;47.338;8.520;2023-09-12T09:44:09;11.20;;;8.32;;
75112;SDS011;63692;47.338;8.520;2023-09-12T09:46:35;14.13;;;8.88;;
75112;SDS011;63692;47.338;8.520;2023-09-12T09:49:02;12.85;;;8.32;;
75112;SDS011;63692;47.338;8.520;2023-09-12T09:51:29;12.48;;;8.73;;
75112;SDS011;63692;47.338;8.520;2023-09-12T09:53:56;10.02;;;8.32;;
75112;SDS011;63692;47.338;8.520;2023-09-12T09:56:23;10.18;;;8.98;;
75112;SDS011;63692;47.338;8.520;2023-09-12T09:58:51;14.45;;;8.57;;
75112;SDS011;63692;47.338;8.520;2023-09-12T10:01:28;12.30;;;8.80;;
75112;SDS011;63692;47.338;8.520;2023-09-12T10:03:58;15.05;;;8.70;;
75112;SDS011;63692;47.338;8.520;2023-09-12T10:06:25;12.68;;;7.88;;
75112;SDS011;63692;47.338;8.520;2023-09-12T10:08:53;11.00;;;8.27;;
75112;SDS011;63692;47.338;8.520;2023-09-12T10:11:23;13.02;;;8.23;;
75112;SDS011;63692;47.338;8.520;2023-09-12T10:16:20;14.43;;;8.13;;
75112;SDS011;63692;47.338;8.520;2023-09-12T10:18:50;9.88;;;7.97;;
75112;SDS011;63692;47.338;8.520;2023-09-12T10:21:29;13.85;;;7.35;;
75112;SDS011;63692;47.338;8.520;2023-09-12T10:23:58;14.35;;;7.63;;
75112;SDS011;63692;47.338;8.520;2023-09-12T10:26:25;12.18;;;7.45;;
75112;SDS011;63692;47.338;8.520;2023-09-12T10:28:51;14.75;;;7.65;;
75112;SDS011;63692;47.338;8.520;2023-09-12T10:31:17;11.60;;;7.30;;
75112;SDS011;63692;47.338;8.520;2023-09-12T10:33:44;13.07;;;8.65;;
75112;SDS011;63692;47.338;8.520;2023-09-12T10:36:11;14.55;;;8.40;;
75112;SDS011;63692;47.338;8.520;2023-09-12T10:38:41;14.38;;;8.27;;
75112;SDS011;63692;47.338;8.520;2023-09-12T10:41:11;13.73;;;7.63;;
75112;SDS011;63692;47.338;8.520;2023-09-12T10:43:39;11.98;;;7.32;;
75112;SDS011;63692;47.338;8.520;2023-09-12T10:46:06;10.02;;;7.57;;
75112;SDS011;63692;47.338;8.520;2023-09-12T10:48:32;12.90;;;8.00;;
75112;SDS011;63692;47.338;8.520;2023-09-12T10:50:59;11.43;;;7.90;;
75112;SDS011;63692;47.338;8.520;2023-09-12T10:53:28;11.48;;;7.90;;
75112;SDS011;63692;47.338;8.520;2023-09-12T10:56:15;12.00;;;8.07;;
75112;SDS011;63692;47.338;8.520;2023-09-12T11:01:29;10.50;;;7.82;;
75112;SDS011;63692;47.338;8.520;2023-09-12T11:03:59;12.43;;;8.48;;
75112;SDS011;63692;47.338;8.520;2023-09-12T11:06:46;11.98;;;8.20;;
75112;SDS011;63692;47.338;8.520;2023-09-12T11:12:02;11.30;;;7.90;;
75112;SDS011;63692;47.338;8.520;2023-09-12T11:14:30;13.63;;;8.20;;
75112;SDS011;63692;47.338;8.520;2023-09-12T11:19:42;11.23;;;8.27;;
75112;SDS011;63692;47.338;8.520;2023-09-12T11:22:26;15.93;;;8.30;;
75112;SDS011;63692;47.338;8.520;2023-09-12T11:24:53;10.90;;;8.43;;
75112;SDS011;63692;47.338;8.520;2023-09-12T11:27:33;13.15;;;8.50;;
75112;SDS011;63692;47.338;8.520;2023-09-12T11:30:15;13.85;;;8.50;;
75112;SDS011;63692;47.338;8.520;2023-09-12T11:32:42;15.32;;;7.88;;
75112;SDS011;63692;47.338;8.520;2023-09-12T11:35:10;10.23;;;7.38;;
75112;SDS011;63692;47.338;8.520;2023-09-12T11:37:36;9.30;;;7.60;;
75112;SDS011;63692;47.338;8.520;2023-09-12T11:40:24;11.07;;;8.55;;
75112;SDS011;63692;47.338;8.520;2023-09-12T11:43:07;9.68;;;7.07;;
75112;SDS011;63692;47.338;8.520;2023-09-12T11:45:43;10.70;;;7.88;;
75112;SDS011;63692;47.338;8.520;2023-09-12T11:48:09;10.70;;;7.20;;
75112;SDS011;63692;47.338;8.520;2023-09-12T11:50:35;11.07;;;7.75;;
75112;SDS011;63692;47.338;8.520;2023-09-12T11:53:07;11.48;;;8.35;;
75112;SDS011;63692;47.338;8.520;2023-09-12T11:58:07;10.75;;;7.75;;
75112;SDS011;63692;47.338;8.520;2023-09-12T12:00:33;15.45;;;7.63;;
75112;SDS011;63692;47.338;8.520;2023-09-12T12:02:58;12.80;;;7.60;;
75112;SDS011;63692;47.338;8.520;2023-09-12T12:05:25;11.70;;;8.30;;
75112;SDS011;63692;47.338;8.520;2023-09-12T12:07:50;9.45;;;7.40;;
75112;SDS011;63692;47.338;8.520;2023-09-12T12:10:17;11.45;;;8.07;;
75112;SDS011;63692;47.338;8.520;2023-09-12T12:12:46;10.43;;;8.20;;
75112;SDS011;63692;47.338;8.520;2023-09-12T12:15:12;9.02;;;7.15;;
75112;SDS011;63692;47.338;8.520;2023-09-12T12:17:39;10.32;;;7.60;;
75112;SDS011;63692;47.338;8.520;2023-09-12T12:20:06;11.60;;;7.10;;
75112;SDS011;63692;47.338;8.520;2023-09-12T12:22:39;9.88;;;7.72;;
75112;SDS011;63692;47.338;8.520;2023-09-12T12:25:09;13.30;;;8.50;;
75112;SDS011;63692;47.338;8.520;2023-09-12T12:27:39;12.20;;;8.02;;
75112;SDS011;63692;47.338;8.520;2023-09-12T12:30:10;11.50;;;8.05;;
75112;SDS011;63692;47.338;8.520;2023-09-12T12:32:41;13.23;;;7.70;;
75112;SDS011;63692;47.338;8.520;2023-09-12T12:35:16;14.73;;;8.18;;
75112;SDS011;63692;47.338;8.520;2023-09-12T12:37:42;13.48;;;7.65;;
75112;SDS011;63692;47.338;8.520;2023-09-12T12:40:11;21.75;;;7.85;;
75112;SDS011;63692;47.338;8.520;2023-09-12T12:42:41;15.15;;;8.50;;
75112;SDS011;63692;47.338;8.520;2023-09-12T12:45:11;13.45;;;7.65;;
75112;SDS011;63692;47.338;8.520;2023-09-12T12:47:44;16.35;;;7.57;;
75112;SDS011;63692;47.338;8.520;2023-09-12T12:50:13;13.48;;;7.40;;
75112;SDS011;63692;47.338;8.520;2023-09-12T12:52:40;14.50;;;7.90;;
75112;SDS011;63692;47.338;8.520;2023-09-12T12:55:07;11.00;;;6.90;;
75112;SDS011;63692;47.338;8.520;2023-09-12T12:57:47;10.02;;;7.07;;
75112;SDS011;63692;47.338;8.520;2023-09-12T13:00:17;11.43;;;6.70;;
75112;SDS011;63692;47.338;8.520;2023-09-12T13:02:44;14.23;;;7.15;;
75112;SDS011;63692;47.338;8.520;2023-09-12T13:07:45;11.15;;;7.43;;
75112;SDS011;63692;47.338;8.520;2023-09-12T13:10:10;15.60;;;7.68;;
75112;SDS011;63692;47.338;8.520;2023-09-12T13:12:36;12.02;;;7.10;;
75112;SDS011;63692;47.338;8.520;2023-09-12T13:15:03;10.32;;;6.93;;
75112;SDS011;63692;47.338;8.520;2023-09-12T13:17:29;8.30;;;6.72;;
75112;SDS011;63692;47.338;8.520;2023-09-12T13:19:55;9.10;;;6.18;;
75112;SDS011;63692;47.338;8.520;2023-09-12T13:22:21;10.73;;;6.40;;
75112;SDS011;63692;47.338;8.520;2023-09-12T13:24:46;9.88;;;5.90;;
75112;SDS011;63692;47.338;8.520;2023-09-12T13:27:12;11.93;;;7.35;;
75112;SDS011;63692;47.338;8.520;2023-09-12T13:29:38;13.25;;;6.70;;
75112;SDS011;63692;47.338;8.520;2023-09-12T13:32:04;10.90;;;6.43;;
75112;SDS011;63692;47.338;8.520;2023-09-12T13:34:30;8.35;;;6.10;;
75112;SDS011;63692;47.338;8.520;2023-09-12T13:36:55;8.85;;;6.25;;
75112;SDS011;63692;47.338;8.520;2023-09-12T13:39:22;13.00;;;5.97;;
75112;SDS011;63692;47.338;8.520;2023-09-12T13:41:47;13.23;;;6.05;;
75112;SDS011;63692;47.338;8.520;2023-09-12T13:44:13;13.68;;;6.15;;
75112;SDS011;63692;47.338;8.520;2023-09-12T13:46:39;11.98;;;7.53;;
75112;SDS011;63692;47.338;8.520;2023-09-12T13:49:05;9.98;;;6.50;;
75112;SDS011;63692;47.338;8.520;2023-09-12T13:51:30;9.73;;;6.30;;
75112;SDS011;63692;47.338;8.520;2023-09-12T13:53:56;18.25;;;6.90;;
75112;SDS011;63692;47.338;8.520;2023-09-12T13:56:22;11.73;;;7.05;;
75112;SDS011;63692;47.338;8.520;2023-09-12T13:58:48;12.23;;;7.53;;
75112;SDS011;63692;47.338;8.520;2023-09-12T14:01:14;11.43;;;7.35;;
75112;SDS011;63692;47.338;8.520;2023-09-12T14:03:42;12.77;;;8.25;;
75112;SDS011;63692;47.338;8.520;2023-09-12T14:06:07;15.50;;;8.13;;
75112;SDS011;63692;47.338;8.520;2023-09-12T14:08:33;13.00;;;7.95;;
75112;SDS011;63692;47.338;8.520;2023-09-12T14:10:58;12.00;;;8.32;;
75112;SDS011;63692;47.338;8.520;2023-09-12T14:13:24;13.02;;;7.70;;
75112;SDS011;63692;47.338;8.520;2023-09-12T14:15:49;11.02;;;7.57;;
75112;SDS011;63692;47.338;8.520;2023-09-12T14:18:16;14.00;;;7.40;;
75112;SDS011;63692;47.338;8.520;2023-09-12T14:20:42;12.75;;;7.97;;
75112;SDS011;63692;47.338;8.520;2023-09-12T14:23:08;12.45;;;7.40;;
75112;SDS011;63692;47.338;8.520;2023-09-12T14:25:33;12.43;;;7.20;;
75112;SDS011;63692;47.338;8.520;2023-09-12T14:27:59;11.55;;;7.07;;
75112;SDS011;63692;47.338;8.520;2023-09-12T14:30:24;13.70;;;6.88;;
75112;SDS011;63692;47.338;8.520;2023-09-12T14:32:58;12.15;;;6.60;;
75112;SDS011;63692;47.338;8.520;2023-09-12T14:35:24;9.93;;;5.97;;
75112;SDS011;63692;47.338;8.520;2023-09-12T14:37:50;7.22;;;5.25;;
75112;SDS011;63692;47.338;8.520;2023-09-12T14:40:15;7.72;;;5.57;;
75112;SDS011;63692;47.338;8.520;2023-09-12T14:42:42;8.27;;;5.28;;
75112;SDS011;63692;47.338;8.520;2023-09-12T14:45:07;15.05;;;4.95;;
75112;SDS011;63692;47.338;8.520;2023-09-12T14:47:34;8.02;;;4.00;;
75112;SDS011;63692;47.338;8.520;2023-09-12T14:50:00;9.35;;;4.40;;
75112;SDS011;63692;47.338;8.520;2023-09-12T14:52:26;7.00;;;3.97;;
75112;SDS011;63692;47.338;8.520;2023-09-12T14:54:52;6.72;;;3.70;;
75112;SDS011;63692;47.338;8.520;2023-09-12T14:57:18;4.35;;;2.47;;
75112;SDS011;63692;47.338;8.520;2023-09-12T14:59:45;7.28;;;2.20;;
75112;SDS011;63692;47.338;8.520;2023-09-12T15:02:10;6.70;;;2.30;;
75112;SDS011;63692;47.338;8.520;2023-09-12T15:04:36;7.35;;;2.40;;
75112;SDS011;63692;47.338;8.520;2023-09-12T15:07:02;6.00;;;2.60;;
75112;SDS011;63692;47.338;8.520;2023-09-12T15:09:28;9.30;;;2.70;;
75112;SDS011;63692;47.338;8.520;2023-09-12T15:11:54;6.82;;;2.95;;
75112;SDS011;63692;47.338;8.520;2023-09-12T15:14:19;6.80;;;2.60;;
75112;SDS011;63692;47.338;8.520;2023-09-12T15:16:46;5.40;;;2.47;;
75112;SDS011;63692;47.338;8.520;2023-09-12T15:19:11;6.65;;;2.70;;
75112;SDS011;63692;47.338;8.520;2023-09-12T15:21:37;12.02;;;2.40;;
75112;SDS011;63692;47.338;8.520;2023-09-12T15:24:03;10.00;;;2.30;;
75112;SDS011;63692;47.338;8.520;2023-09-12T15:26:29;6.18;;;2.20;;
75112;SDS011;63692;47.338;8.520;2023-09-12T15:31:24;5.85;;;2.40;;
75112;SDS011;63692;47.338;8.520;2023-09-12T15:33:49;6.25;;;1.98;;
75112;SDS011;63692;47.338;8.520;2023-09-12T15:36:15;4.75;;;2.20;;
75112;SDS011;63692;47.338;8.520;2023-09-12T15:38:40;12.63;;;2.50;;
75112;SDS011;63692;47.338;8.520;2023-09-12T15:41:06;6.05;;;1.92;;
75112;SDS011;63692;47.338;8.520;2023-09-12T15:43:33;11.57;;;1.98;;
75112;SDS011;63692;47.338;8.520;2023-09-12T15:45:59;4.38;;;1.88;;
75112;SDS011;63692;47.338;8.520;2023-09-12T15:48:24;8.70;;;2.03;;
75112;SDS011;63692;47.338;8.520;2023-09-12T15:50:51;5.28;;;1.65;;
75112;SDS011;63692;47.338;8.520;2023-09-12T15:53:16;7.35;;;1.90;;
75112;SDS011;63692;47.338;8.520;2023-09-12T15:55:42;5.40;;;2.00;;
75112;SDS011;63692;47.338;8.520;2023-09-12T15:58:08;4.13;;;1.77;;
75112;SDS011;63692;47.338;8.520;2023-09-12T16:00:34;6.53;;;1.90;;
75112;SDS011;63692;47.338;8.520;2023-09-12T16:03:00;6.10;;;1.92;;
75112;SDS011;63692;47.338;8.520;2023-09-12T16:05:26;6.15;;;1.70;;
75112;SDS011;63692;47.338;8.520;2023-09-12T16:07:51;5.57;;;1.60;;
75112;SDS011;63692;47.338;8.520;2023-09-12T16:10:17;3.70;;;1.60;;
75112;SDS011;63692;47.338;8.520;2023-09-12T16:12:42;6.70;;;1.80;;
75112;SDS011;63692;47.338;8.520;2023-09-12T16:15:08;7.97;;;2.20;;
75112;SDS011;63692;47.338;8.520;2023-09-12T16:17:34;9.38;;;2.90;;
75112;SDS011;63692;47.338;8.520;2023-09-12T16:20:06;13.35;;;3.17;;
75112;SDS011;63692;47.338;8.520;2023-09-12T16:22:34;13.07;;;3.72;;
75112;SDS011;63692;47.338;8.520;2023-09-12T16:25:00;12.40;;;2.90;;
75112;SDS011;63692;47.338;8.520;2023-09-12T16:27:25;8.07;;;2.40;;
75112;SDS011;63692;47.338;8.520;2023-09-12T16:29:51;6.65;;;2.33;;
75112;SDS011;63692;47.338;8.520;2023-09-12T16:32:16;10.77;;;3.08;;
75112;SDS011;63692;47.338;8.520;2023-09-12T16:34:42;13.98;;;3.17;;
75112;SDS011;63692;47.338;8.520;2023-09-12T16:37:08;6.85;;;2.25;;
75112;SDS011;63692;47.338;8.520;2023-09-12T16:39:33;10.02;;;2.50;;
75112;SDS011;63692;47.338;8.520;2023-09-12T16:42:00;8.43;;;2.42;;
75112;SDS011;63692;47.338;8.520;2023-09-12T16:44:26;11.07;;;3.40;;
75112;SDS011;63692;47.338;8.520;2023-09-12T16:46:51;15.77;;;6.85;;
75112;SDS011;63692;47.338;8.520;2023-09-12T16:49:17;20.10;;;4.15;;
75112;SDS011;63692;47.338;8.520;2023-09-12T16:51:42;12.65;;;2.47;;
75112;SDS011;63692;47.338;8.520;2023-09-12T16:54:08;11.63;;;3.40;;
75112;SDS011;63692;47.338;8.520;2023-09-12T16:56:34;7.78;;;3.55;;
75112;SDS011;63692;47.338;8.520;2023-09-12T16:58:59;17.15;;;3.25;;
75112;SDS011;63692;47.338;8.520;2023-09-12T17:01:25;7.18;;;2.67;;
75112;SDS011;63692;47.338;8.520;2023-09-12T17:03:57;9.70;;;3.35;;
75112;SDS011;63692;47.338;8.520;2023-09-12T17:06:25;11.95;;;3.63;;
75112;SDS011;63692;47.338;8.520;2023-09-12T17:08:50;8.70;;;3.20;;
75112;SDS011;63692;47.338;8.520;2023-09-12T17:11:16;11.60;;;3.30;;
75112;SDS011;63692;47.338;8.520;2023-09-12T17:13:42;10.45;;;3.30;;
75112;SDS011;63692;47.338;8.520;2023-09-12T17:16:07;11.10;;;2.90;;
75112;SDS011;63692;47.338;8.520;2023-09-12T17:18:33;5.53;;;2.50;;
75112;SDS011;63692;47.338;8.520;2023-09-12T17:20:59;8.93;;;2.28;;
75112;SDS011;63692;47.338;8.520;2023-09-12T17:23:25;10.10;;;2.30;;
75112;SDS011;63692;47.338;8.520;2023-09-12T17:25:50;6.45;;;1.98;;
75112;SDS011;63692;47.338;8.520;2023-09-12T17:28:16;6.60;;;2.25;;
75112;SDS011;63692;47.338;8.520;2023-09-12T17:30:41;6.10;;;1.90;;
75112;SDS011;63692;47.338;8.520;2023-09-12T17:33:07;6.63;;;2.25;;
75112;SDS011;63692;47.338;8.520;2023-09-12T17:35:35;6.80;;;2.40;;
75112;SDS011;63692;47.338;8.520;2023-09-12T17:38:00;5.85;;;2.20;;
75112;SDS011;63692;47.338;8.520;2023-09-12T18:00:30;7.78;;;2.38;;
75112;SDS011;63692;47.338;8.520;2023-09-12T18:02:56;11.07;;;2.42;;
75112;SDS011;63692;47.338;8.520;2023-09-12T18:05:22;10.45;;;2.60;;
75112;SDS011;63692;47.338;8.520;2023-09-12T18:07:47;8.70;;;2.35;;
75112;SDS011;63692;47.338;8.520;2023-09-12T18:10:13;4.93;;;2.40;;
75112;SDS011;63692;47.338;8.520;2023-09-12T18:12:38;4.85;;;2.30;;
75112;SDS011;63692;47.338;8.520;2023-09-12T18:15:04;7.82;;;2.80;;
75112;SDS011;63692;47.338;8.520;2023-09-12T18:17:32;4.90;;;2.25;;
75112;SDS011;63692;47.338;8.520;2023-09-12T18:19:57;5.47;;;2.92;;
75112;SDS011;63692;47.338;8.520;2023-09-12T18:22:23;12.35;;;3.03;;
75112;SDS011;63692;47.338;8.520;2023-09-12T18:24:49;7.93;;;2.33;;
75112;SDS011;63692;47.338;8.520;2023-09-12T18:27:15;9.05;;;2.92;;
